sensor_id;sensor_type;location;lat;lon;timestamp;pressure;altitude;pressure_sealevel;temperature;humidity
49315;BME280;36672;50.710;12.498;2023-01-28T00:00:28;99262.59;;;0.26;86.86
49315;BME280;36672;50.710;12.498;2023-01-28T00:02:53;99271.44;;;0.27;86.98
49315;BME280;36672;50.710;12.498;2023-01-28T00:05:18;99248.31;;;0.16;86.97
49315;BME280;36672;50.710;12.498;2023-01-28T00:07:44;99259.94;;;0.26;87.03
49315;BME280;36672;50.710;12.498;2023-01-28T00:10:09;99259.13;;;0.26;87.07
49315;BME280;36672;50.710;12.498;2023-01-28T00:12:35;99252.09;;;0.25;87.15
49315;BME280;36672;50.710;12.498;2023-01-28T00:15:00;99271.94;;;0.32;86.88
49315;BME280;36672;50.710;12.498;2023-01-28T00:17:26;99262.03;;;0.34;87.00
49315;BME280;36672;50.710;12.498;2023-01-28T00:19:51;99258.19;;;0.38;87.03
49315;BME280;36672;50.710;12.498;2023-01-28T00:22:17;99238.94;;;0.23;86.71
49315;BME280;36672;50.710;12.498;2023-01-28T00:24:42;99265.44;;;0.36;86.41
49315;BME280;36672;50.710;12.498;2023-01-28T00:27:07;99255.25;;;0.30;86.40
49315;BME280;36672;50.710;12.498;2023-01-28T00:29:33;99247.75;;;0.24;86.70
49315;BME280;36672;50.710;12.498;2023-01-28T00:31:58;99265.66;;;0.33;86.67
49315;BME280;36672;50.710;12.498;2023-01-28T00:34:24;99238.19;;;0.21;86.77
49315;BME280;36672;50.710;12.498;2023-01-28T00:36:49;99258.03;;;0.28;87.18
49315;BME280;36672;50.710;12.498;2023-01-28T00:39:22;99252.84;;;0.27;86.77
49315;BME280;36672;50.710;12.498;2023-01-28T00:41:47;99267.25;;;0.36;87.14
49315;BME280;36672;50.710;12.498;2023-01-28T00:44:13;99261.94;;;0.36;87.27
49315;BME280;36672;50.710;12.498;2023-01-28T00:46:38;99256.50;;;0.37;87.37
49315;BME280;36672;50.710;12.498;2023-01-28T00:49:06;99249.81;;;0.31;87.36
49315;BME280;36672;50.710;12.498;2023-01-28T00:51:31;99248.03;;;0.32;87.41
49315;BME280;36672;50.710;12.498;2023-01-28T00:53:57;99260.72;;;0.40;87.64
49315;BME280;36672;50.710;12.498;2023-01-28T00:56:22;99220.78;;;0.17;87.62
49315;BME280;36672;50.710;12.498;2023-01-28T00:58:47;99267.00;;;0.39;87.82
49315;BME280;36672;50.710;12.498;2023-01-28T01:03:43;99248.59;;;0.24;87.91
49315;BME280;36672;50.710;12.498;2023-01-28T01:06:09;99262.75;;;0.36;88.03
49315;BME280;36672;50.710;12.498;2023-01-28T01:08:35;99260.09;;;0.36;88.11
49315;BME280;36672;50.710;12.498;2023-01-28T01:11:04;99257.44;;;0.36;88.02
49315;BME280;36672;50.710;12.498;2023-01-28T01:13:31;99267.84;;;0.39;88.26
49315;BME280;36672;50.710;12.498;2023-01-28T01:16:11;99265.44;;;0.36;88.19
49315;BME280;36672;50.710;12.498;2023-01-28T01:18:37;99260.94;;;0.37;88.35
49315;BME280;36672;50.710;12.498;2023-01-28T01:21:14;99249.09;;;0.29;88.42
49315;BME280;36672;50.710;12.498;2023-01-28T01:23:42;99264.69;;;0.34;88.46
49315;BME280;36672;50.710;12.498;2023-01-28T01:26:08;99269.03;;;0.35;88.49
49315;BME280;36672;50.710;12.498;2023-01-28T01:28:34;99276.06;;;0.36;88.53
49315;BME280;36672;50.710;12.498;2023-01-28T01:31:05;99279.19;;;0.30;88.31
49315;BME280;36672;50.710;12.498;2023-01-28T01:33:31;99284.63;;;0.28;88.43
49315;BME280;36672;50.710;12.498;2023-01-28T01:35:57;99267.25;;;0.11;87.97
49315;BME280;36672;50.710;12.498;2023-01-28T01:38:23;99284.56;;;0.17;88.36
49315;BME280;36672;50.710;12.498;2023-01-28T01:40:48;99285.75;;;0.13;88.36
49315;BME280;36672;50.710;12.498;2023-01-28T01:43:16;99286.09;;;0.08;88.09
49315;BME280;36672;50.710;12.498;2023-01-28T01:45:42;99289.94;;;0.04;87.84
49315;BME280;36672;50.710;12.498;2023-01-28T01:48:15;99278.41;;;-0.08;88.38
49315;BME280;36672;50.710;12.498;2023-01-28T01:50:49;99271.13;;;-0.17;87.93
49315;BME280;36672;50.710;12.498;2023-01-28T01:53:19;99286.38;;;-0.08;88.34
49315;BME280;36672;50.710;12.498;2023-01-28T01:55:49;99279.78;;;-0.02;88.31
49315;BME280;36672;50.710;12.498;2023-01-28T01:58:17;99261.34;;;-0.17;88.21
49315;BME280;36672;50.710;12.498;2023-01-28T02:00:43;99284.34;;;-0.04;87.93
49315;BME280;36672;50.710;12.498;2023-01-28T02:03:10;99283.38;;;-0.03;88.04
49315;BME280;36672;50.710;12.498;2023-01-28T02:05:37;99276.09;;;-0.12;88.58
49315;BME280;36672;50.710;12.498;2023-01-28T02:08:03;99258.69;;;-0.17;87.96
49315;BME280;36672;50.710;12.498;2023-01-28T02:10:51;99287.25;;;-0.07;87.92
49315;BME280;36672;50.710;12.498;2023-01-28T02:13:18;99287.00;;;-0.04;88.04
49315;BME280;36672;50.710;12.498;2023-01-28T02:15:45;99289.16;;;-0.09;88.14
49315;BME280;36672;50.710;12.498;2023-01-28T02:18:10;99300.91;;;-0.01;88.01
49315;BME280;36672;50.710;12.498;2023-01-28T02:21:02;99290.97;;;-0.10;87.89
49315;BME280;36672;50.710;12.498;2023-01-28T02:23:44;99299.22;;;-0.02;88.02
49315;BME280;36672;50.710;12.498;2023-01-28T02:32:02;99298.38;;;-0.02;87.78
49315;BME280;36672;50.710;12.498;2023-01-28T02:34:50;99290.97;;;-0.10;87.85
49315;BME280;36672;50.710;12.498;2023-01-28T02:37:24;99296.78;;;-0.05;87.57
49315;BME280;36672;50.710;12.498;2023-01-28T02:39:55;99302.22;;;-0.06;87.55
49315;BME280;36672;50.710;12.498;2023-01-28T02:42:27;99298.31;;;-0.13;87.87
49315;BME280;36672;50.710;12.498;2023-01-28T02:44:53;99309.94;;;-0.03;87.82
49315;BME280;36672;50.710;12.498;2023-01-28T02:47:18;99294.34;;;-0.08;88.29
49315;BME280;36672;50.710;12.498;2023-01-28T02:50:13;99292.88;;;-0.12;88.15
49315;BME280;36672;50.710;12.498;2023-01-28T03:01:23;99309.38;;;0.05;88.12
49315;BME280;36672;50.710;12.498;2023-01-28T03:04:03;99311.09;;;0.06;88.13
49315;BME280;36672;50.710;12.498;2023-01-28T03:06:44;99314.69;;;0.05;88.09
49315;BME280;36672;50.710;12.498;2023-01-28T03:09:14;99291.59;;;-0.06;88.44
49315;BME280;36672;50.710;12.498;2023-01-28T03:12:00;99302.50;;;0.02;88.42
49315;BME280;36672;50.710;12.498;2023-01-28T03:14:50;99296.22;;;0.03;88.49
49315;BME280;36672;50.710;12.498;2023-01-28T03:20:28;99303.75;;;0.09;88.40
49315;BME280;36672;50.710;12.498;2023-01-28T03:23:21;99297.81;;;0.06;88.26
49315;BME280;36672;50.710;12.498;2023-01-28T03:26:07;99324.56;;;0.15;88.37
49315;BME280;36672;50.710;12.498;2023-01-28T03:28:53;99296.22;;;0.03;88.50
49315;BME280;36672;50.710;12.498;2023-01-28T03:31:38;99319.44;;;0.12;88.05
49315;BME280;36672;50.710;12.498;2023-01-28T03:34:22;99325.94;;;0.08;88.21
49315;BME280;36672;50.710;12.498;2023-01-28T03:37:07;99320.69;;;-0.05;87.98
49315;BME280;36672;50.710;12.498;2023-01-28T03:39:33;99329.19;;;0.01;87.97
49315;BME280;36672;50.710;12.498;2023-01-28T03:42:11;99320.19;;;-0.10;87.47
49315;BME280;36672;50.710;12.498;2023-01-28T03:44:38;99310.22;;;-0.19;87.90
49315;BME280;36672;50.710;12.498;2023-01-28T03:47:16;99314.81;;;-0.21;87.75
49315;BME280;36672;50.710;12.498;2023-01-28T03:49:46;99330.81;;;-0.10;87.87
49315;BME280;36672;50.710;12.498;2023-01-28T03:52:19;99335.63;;;-0.15;87.93
49315;BME280;36672;50.710;12.498;2023-01-28T03:54:46;99339.84;;;-0.12;87.93
49315;BME280;36672;50.710;12.498;2023-01-28T03:57:13;99333.91;;;-0.16;87.94
49315;BME280;36672;50.710;12.498;2023-01-28T03:59:39;99327.84;;;-0.18;88.00
49315;BME280;36672;50.710;12.498;2023-01-28T04:02:05;99327.03;;;-0.19;87.93
49315;BME280;36672;50.710;12.498;2023-01-28T04:04:31;99346.00;;;-0.12;87.39
49315;BME280;36672;50.710;12.498;2023-01-28T04:06:57;99347.94;;;-0.14;87.97
49315;BME280;36672;50.710;12.498;2023-01-28T04:09:23;99358.56;;;-0.14;87.41
49315;BME280;36672;50.710;12.498;2023-01-28T04:11:49;99366.09;;;-0.21;87.52
49315;BME280;36672;50.710;12.498;2023-01-28T04:14:16;99353.19;;;-0.25;87.72
49315;BME280;36672;50.710;12.498;2023-01-28T04:16:41;99360.16;;;-0.24;87.63
49315;BME280;36672;50.710;12.498;2023-01-28T04:19:07;99354.44;;;-0.31;87.84
49315;BME280;36672;50.710;12.498;2023-01-28T04:21:33;99352.88;;;-0.34;87.54
49315;BME280;36672;50.710;12.498;2023-01-28T04:23:58;99356.28;;;-0.31;87.68
49315;BME280;36672;50.710;12.498;2023-01-28T04:26:23;99355.59;;;-0.22;87.44
49315;BME280;36672;50.710;12.498;2023-01-28T04:28:49;99360.91;;;-0.22;87.26
49315;BME280;36672;50.710;12.498;2023-01-28T04:31:14;99344.59;;;-0.29;87.21
49315;BME280;36672;50.710;12.498;2023-01-28T04:33:39;99356.16;;;-0.30;87.17
49315;BME280;36672;50.710;12.498;2023-01-28T04:36:05;99359.44;;;-0.26;87.01
49315;BME280;36672;50.710;12.498;2023-01-28T04:38:30;99368.88;;;-0.22;86.51
49315;BME280;36672;50.710;12.498;2023-01-28T04:40:56;99368.13;;;-0.24;86.45
49315;BME280;36672;50.710;12.498;2023-01-28T04:43:21;99370.91;;;-0.26;86.38
49315;BME280;36672;50.710;12.498;2023-01-28T04:45:47;99365.19;;;-0.32;86.16
49315;BME280;36672;50.710;12.498;2023-01-28T04:48:14;99377.28;;;-0.28;85.62
49315;BME280;36672;50.710;12.498;2023-01-28T04:50:39;99369.22;;;-0.40;85.48
49315;BME280;36672;50.710;12.498;2023-01-28T04:53:06;99381.66;;;-0.40;85.36
49315;BME280;36672;50.710;12.498;2023-01-28T04:55:32;99370.59;;;-0.47;85.25
49315;BME280;36672;50.710;12.498;2023-01-28T04:57:57;99388.69;;;-0.39;85.28
49315;BME280;36672;50.710;12.498;2023-01-28T05:00:23;99389.75;;;-0.42;85.11
49315;BME280;36672;50.710;12.498;2023-01-28T05:02:48;99375.41;;;-0.52;85.03
49315;BME280;36672;50.710;12.498;2023-01-28T05:05:14;99379.75;;;-0.51;84.92
49315;BME280;36672;50.710;12.498;2023-01-28T05:07:39;99397.28;;;-0.48;84.64
49315;BME280;36672;50.710;12.498;2023-01-28T05:10:05;99398.56;;;-0.54;84.32
49315;BME280;36672;50.710;12.498;2023-01-28T05:12:30;99406.41;;;-0.53;84.03
49315;BME280;36672;50.710;12.498;2023-01-28T05:14:57;99371.91;;;-0.66;84.07
49315;BME280;36672;50.710;12.498;2023-01-28T05:17:25;99407.38;;;-0.54;83.86
49315;BME280;36672;50.710;12.498;2023-01-28T05:19:50;99415.22;;;-0.52;84.15
49315;BME280;36672;50.710;12.498;2023-01-28T05:22:16;99384.44;;;-0.68;83.83
49315;BME280;36672;50.710;12.498;2023-01-28T05:24:41;99396.66;;;-0.65;83.39
49315;BME280;36672;50.710;12.498;2023-01-28T05:27:07;99403.78;;;-0.66;83.35
49315;BME280;36672;50.710;12.498;2023-01-28T05:29:32;99393.56;;;-0.72;83.50
49315;BME280;36672;50.710;12.498;2023-01-28T05:31:57;99391.75;;;-0.71;83.54
49315;BME280;36672;50.710;12.498;2023-01-28T05:34:23;99412.38;;;-0.62;83.11
49315;BME280;36672;50.710;12.498;2023-01-28T05:36:48;99423.19;;;-0.65;83.04
49315;BME280;36672;50.710;12.498;2023-01-28T05:39:13;99417.22;;;-0.69;82.40
49315;BME280;36672;50.710;12.498;2023-01-28T05:41:39;99398.03;;;-0.85;82.60
49315;BME280;36672;50.710;12.498;2023-01-28T05:44:04;99400.91;;;-0.88;82.04
49315;BME280;36672;50.710;12.498;2023-01-28T05:46:29;99425.63;;;-0.75;82.35
49315;BME280;36672;50.710;12.498;2023-01-28T05:48:55;99433.81;;;-0.78;81.73
49315;BME280;36672;50.710;12.498;2023-01-28T05:51:20;99419.56;;;-0.90;81.98
49315;BME280;36672;50.710;12.498;2023-01-28T05:53:45;99430.38;;;-0.80;81.95
49315;BME280;36672;50.710;12.498;2023-01-28T05:56:11;99431.44;;;-0.83;81.70
49315;BME280;36672;50.710;12.498;2023-01-28T05:58:36;99420.31;;;-0.88;81.84
49315;BME280;36672;50.710;12.498;2023-01-28T06:01:02;99408.44;;;-0.95;81.59
49315;BME280;36672;50.710;12.498;2023-01-28T06:03:27;99440.28;;;-0.82;81.42
49315;BME280;36672;50.710;12.498;2023-01-28T06:05:53;99439.34;;;-0.81;81.67
49315;BME280;36672;50.710;12.498;2023-01-28T06:08:18;99442.72;;;-0.79;81.89
49315;BME280;36672;50.710;12.498;2023-01-28T06:10:43;99420.63;;;-0.92;82.05
49315;BME280;36672;50.710;12.498;2023-01-28T06:13:10;99455.13;;;-0.79;82.35
49315;BME280;36672;50.710;12.498;2023-01-28T06:15:35;99444.00;;;-0.85;81.96
49315;BME280;36672;50.710;12.498;2023-01-28T06:18:00;99443.75;;;-0.94;81.92
49315;BME280;36672;50.710;12.498;2023-01-28T06:20:26;99456.25;;;-0.96;81.88
49315;BME280;36672;50.710;12.498;2023-01-28T06:22:51;99465.78;;;-1.07;81.52
49315;BME280;36672;50.710;12.498;2023-01-28T06:25:17;99471.41;;;-1.11;81.60
49315;BME280;36672;50.710;12.498;2023-01-28T06:27:43;99471.59;;;-1.15;81.83
49315;BME280;36672;50.710;12.498;2023-01-28T06:30:09;99466.31;;;-1.15;81.80
49315;BME280;36672;50.710;12.498;2023-01-28T06:32:35;99470.13;;;-1.19;81.90
49315;BME280;36672;50.710;12.498;2023-01-28T06:35:01;99481.81;;;-1.08;81.79
49315;BME280;36672;50.710;12.498;2023-01-28T06:37:26;99479.38;;;-1.11;81.76
49315;BME280;36672;50.710;12.498;2023-01-28T06:39:51;99475.72;;;-1.23;81.62
49315;BME280;36672;50.710;12.498;2023-01-28T06:42:17;99490.16;;;-1.15;81.26
49315;BME280;36672;50.710;12.498;2023-01-28T06:44:42;99488.78;;;-1.20;81.67
49315;BME280;36672;50.710;12.498;2023-01-28T06:47:08;99493.31;;;-1.22;81.24
49315;BME280;36672;50.710;12.498;2023-01-28T06:49:35;99502.13;;;-1.22;80.77
49315;BME280;36672;50.710;12.498;2023-01-28T06:52:01;99501.38;;;-1.24;80.60
49315;BME280;36672;50.710;12.498;2023-01-28T06:54:26;99484.00;;;-1.28;80.55
49315;BME280;36672;50.710;12.498;2023-01-28T06:56:51;99483.72;;;-1.38;80.01
49315;BME280;36672;50.710;12.498;2023-01-28T06:59:17;99489.88;;;-1.37;79.75
49315;BME280;36672;50.710;12.498;2023-01-28T07:01:42;99494.78;;;-1.31;79.26
49315;BME280;36672;50.710;12.498;2023-01-28T07:04:07;99488.94;;;-1.36;79.17
49315;BME280;36672;50.710;12.498;2023-01-28T07:06:33;99497.31;;;-1.29;79.22
49315;BME280;36672;50.710;12.498;2023-01-28T07:08:58;99497.16;;;-1.26;78.91
49315;BME280;36672;50.710;12.498;2023-01-28T07:11:24;99482.56;;;-1.34;78.49
49315;BME280;36672;50.710;12.498;2023-01-28T07:13:49;99484.38;;;-1.34;78.47
49315;BME280;36672;50.710;12.498;2023-01-28T07:16:14;99487.59;;;-1.29;78.20
49315;BME280;36672;50.710;12.498;2023-01-28T07:18:40;99504.59;;;-1.19;78.02
49315;BME280;36672;50.710;12.498;2023-01-28T07:21:05;99492.97;;;-1.31;78.04
49315;BME280;36672;50.710;12.498;2023-01-28T07:23:30;99495.53;;;-1.29;77.55
49315;BME280;36672;50.710;12.498;2023-01-28T07:26:00;99506.59;;;-1.22;77.10
49315;BME280;36672;50.710;12.498;2023-01-28T07:28:26;99507.63;;;-1.25;76.63
49315;BME280;36672;50.710;12.498;2023-01-28T07:30:52;99495.00;;;-1.34;76.31
49315;BME280;36672;50.710;12.498;2023-01-28T07:33:17;99502.56;;;-1.28;76.42
49315;BME280;36672;50.710;12.498;2023-01-28T07:35:43;99506.88;;;-1.27;76.20
49315;BME280;36672;50.710;12.498;2023-01-28T07:38:09;99518.78;;;-1.20;75.52
49315;BME280;36672;50.710;12.498;2023-01-28T07:40:34;99484.56;;;-1.37;75.33
49315;BME280;36672;50.710;12.498;2023-01-28T07:43:00;99503.56;;;-1.31;74.79
49315;BME280;36672;50.710;12.498;2023-01-28T07:45:26;99483.63;;;-1.36;75.19
49315;BME280;36672;50.710;12.498;2023-01-28T07:47:54;99487.78;;;-1.32;75.10
49315;BME280;36672;50.710;12.498;2023-01-28T07:50:20;99502.34;;;-1.25;74.72
49315;BME280;36672;50.710;12.498;2023-01-28T07:52:45;99502.34;;;-1.25;75.21
49315;BME280;36672;50.710;12.498;2023-01-28T07:55:10;99512.84;;;-1.23;75.31
49315;BME280;36672;50.710;12.498;2023-01-28T08:00:19;99504.22;;;-1.27;74.89
49315;BME280;36672;50.710;12.498;2023-01-28T08:02:45;99481.03;;;-1.51;75.27
49315;BME280;36672;50.710;12.498;2023-01-28T08:05:21;99494.63;;;-1.42;74.28
49315;BME280;36672;50.710;12.498;2023-01-28T08:07:48;99499.44;;;-1.35;74.67
49315;BME280;36672;50.710;12.498;2023-01-28T08:10:15;99496.47;;;-1.30;74.45
49315;BME280;36672;50.710;12.498;2023-01-28T08:12:49;99515.84;;;-1.15;74.55
49315;BME280;36672;50.710;12.498;2023-01-28T08:15:15;99516.78;;;-1.16;74.10
49315;BME280;36672;50.710;12.498;2023-01-28T08:17:40;99530.50;;;-1.09;74.75
49315;BME280;36672;50.710;12.498;2023-01-28T08:20:06;99520.00;;;-1.11;74.27
49315;BME280;36672;50.710;12.498;2023-01-28T08:22:31;99522.09;;;-1.16;74.10
49315;BME280;36672;50.710;12.498;2023-01-28T08:24:56;99520.91;;;-1.25;74.40
49315;BME280;36672;50.710;12.498;2023-01-28T08:27:22;99535.53;;;-1.19;73.62
49315;BME280;36672;50.710;12.498;2023-01-28T08:29:48;99536.19;;;-1.16;74.31
49315;BME280;36672;50.710;12.498;2023-01-28T08:32:13;99528.91;;;-1.12;74.14
49315;BME280;36672;50.710;12.498;2023-01-28T08:34:38;99523.09;;;-1.04;73.53
49315;BME280;36672;50.710;12.498;2023-01-28T08:37:04;99531.59;;;-0.99;73.61
49315;BME280;36672;50.710;12.498;2023-01-28T08:39:30;99545.41;;;-0.94;73.25
49315;BME280;36672;50.710;12.498;2023-01-28T08:41:56;99537.84;;;-1.00;73.07
49315;BME280;36672;50.710;12.498;2023-01-28T08:44:22;99542.41;;;-1.02;73.09
49315;BME280;36672;50.710;12.498;2023-01-28T08:46:47;99530.59;;;-1.11;73.00
49315;BME280;36672;50.710;12.498;2023-01-28T08:49:15;99548.06;;;-0.94;73.58
49315;BME280;36672;50.710;12.498;2023-01-28T08:51:41;99550.84;;;-0.83;72.94
49315;BME280;36672;50.710;12.498;2023-01-28T08:54:06;99540.97;;;-0.93;72.82
49315;BME280;36672;50.710;12.498;2023-01-28T08:56:31;99570.59;;;-0.87;73.27
49315;BME280;36672;50.710;12.498;2023-01-28T08:58:57;99563.56;;;-0.88;73.39
49315;BME280;36672;50.710;12.498;2023-01-28T09:01:23;99566.13;;;-0.86;73.02
49315;BME280;36672;50.710;12.498;2023-01-28T09:03:50;99572.19;;;-0.84;73.10
49315;BME280;36672;50.710;12.498;2023-01-28T09:06:15;99572.72;;;-0.79;73.10
49315;BME280;36672;50.710;12.498;2023-01-28T09:08:40;99579.13;;;-0.69;73.21
49315;BME280;36672;50.710;12.498;2023-01-28T09:11:06;99584.03;;;-0.62;72.34
49315;BME280;36672;50.710;12.498;2023-01-28T09:13:32;99569.56;;;-0.71;71.69
49315;BME280;36672;50.710;12.498;2023-01-28T09:15:57;99584.53;;;-0.70;71.29
49315;BME280;36672;50.710;12.498;2023-01-28T09:18:23;99555.50;;;-0.86;69.67
49315;BME280;36672;50.710;12.498;2023-01-28T09:20:48;99579.63;;;-0.76;70.33
49315;BME280;36672;50.710;12.498;2023-01-28T09:23:13;99563.28;;;-0.83;70.18
49315;BME280;36672;50.710;12.498;2023-01-28T09:25:39;99564.34;;;-0.86;70.02
49315;BME280;36672;50.710;12.498;2023-01-28T09:28:05;99580.94;;;-0.69;70.29
49315;BME280;36672;50.710;12.498;2023-01-28T09:30:31;99578.22;;;-0.55;70.27
49315;BME280;36672;50.710;12.498;2023-01-28T09:32:57;99587.72;;;-0.38;70.32
49315;BME280;36672;50.710;12.498;2023-01-28T09:35:23;99557.31;;;-0.46;69.64
49315;BME280;36672;50.710;12.498;2023-01-28T09:37:48;99580.72;;;-0.26;69.54
49315;BME280;36672;50.710;12.498;2023-01-28T09:45:46;99588.47;;;-0.10;68.72
49315;BME280;36672;50.710;12.498;2023-01-28T09:48:20;99597.09;;;-0.06;68.28
49315;BME280;36672;50.710;12.498;2023-01-28T09:50:50;99584.53;;;-0.17;67.91
49315;BME280;36672;50.710;12.498;2023-01-28T09:53:31;99571.91;;;-0.26;67.75
49315;BME280;36672;50.710;12.498;2023-01-28T09:56:12;99592.69;;;-0.33;66.91
49315;BME280;36672;50.710;12.498;2023-01-28T09:58:41;99594.28;;;-0.30;68.75
49315;BME280;36672;50.710;12.498;2023-01-28T10:04:11;99595.56;;;-0.23;68.74
49315;BME280;36672;50.710;12.498;2023-01-28T10:06:59;99591.44;;;-0.14;67.12
49315;BME280;36672;50.710;12.498;2023-01-28T10:09:37;99594.41;;;-0.19;67.40
49315;BME280;36672;50.710;12.498;2023-01-28T10:17:49;99602.94;;;-0.14;67.08
49315;BME280;36672;50.710;12.498;2023-01-28T10:20:27;99586.91;;;-0.12;67.14
49315;BME280;36672;50.710;12.498;2023-01-28T10:23:01;99594.75;;;-0.11;67.79
49315;BME280;36672;50.710;12.498;2023-01-28T10:25:30;99591.88;;;-0.08;67.73
49315;BME280;36672;50.710;12.498;2023-01-28T10:27:56;99589.56;;;0.01;67.78
49315;BME280;36672;50.710;12.498;2023-01-28T10:30:27;99594.34;;;-0.05;67.01
49315;BME280;36672;50.710;12.498;2023-01-28T10:33:09;99599.53;;;-0.03;67.34
49315;BME280;36672;50.710;12.498;2023-01-28T10:35:40;99593.50;;;0.08;67.99
49315;BME280;36672;50.710;12.498;2023-01-28T10:38:12;99588.06;;;0.09;67.77
49315;BME280;36672;50.710;12.498;2023-01-28T10:40:41;99588.28;;;0.19;67.13
49315;BME280;36672;50.710;12.498;2023-01-28T10:43:07;99601.56;;;0.19;66.66
49315;BME280;36672;50.710;12.498;2023-01-28T10:48:37;99607.31;;;0.13;66.75
49315;BME280;36672;50.710;12.498;2023-01-28T10:51:05;99615.28;;;0.13;67.25
49315;BME280;36672;50.710;12.498;2023-01-28T10:53:42;99611.22;;;0.07;66.69
49315;BME280;36672;50.710;12.498;2023-01-28T10:56:10;99614.31;;;0.14;66.83
49315;BME280;36672;50.710;12.498;2023-01-28T10:58:59;99603.13;;;-0.04;64.30
49315;BME280;36672;50.710;12.498;2023-01-28T11:01:58;99607.38;;;-0.02;64.02
49315;BME280;36672;50.710;12.498;2023-01-28T11:04:24;99613.47;;;0.01;65.51
49315;BME280;36672;50.710;12.498;2023-01-28T11:06:58;99601.78;;;-0.10;65.04
49315;BME280;36672;50.710;12.498;2023-01-28T11:09:29;99623.66;;;-0.06;64.66
49315;BME280;36672;50.710;12.498;2023-01-28T11:11:56;99615.47;;;-0.16;64.68
49315;BME280;36672;50.710;12.498;2023-01-28T11:14:24;99614.28;;;-0.12;64.32
49315;BME280;36672;50.710;12.498;2023-01-28T11:16:51;99605.25;;;-0.22;64.31
49315;BME280;36672;50.710;12.498;2023-01-28T11:19:18;99603.78;;;-0.26;63.46
49315;BME280;36672;50.710;12.498;2023-01-28T11:21:51;99614.28;;;-0.25;63.83
49315;BME280;36672;50.710;12.498;2023-01-28T11:24:27;99610.03;;;-0.27;63.96
49315;BME280;36672;50.710;12.498;2023-01-28T11:26:56;99618.78;;;-0.12;64.12
49315;BME280;36672;50.710;12.498;2023-01-28T11:29:32;99615.66;;;-0.19;62.85
49315;BME280;36672;50.710;12.498;2023-01-28T11:31:59;99612.69;;;-0.14;63.91
49315;BME280;36672;50.710;12.498;2023-01-28T11:34:33;99616.41;;;-0.17;63.36
49315;BME280;36672;50.710;12.498;2023-01-28T11:37:26;99613.09;;;-0.34;61.54
49315;BME280;36672;50.710;12.498;2023-01-28T11:40:08;99608.94;;;-0.51;61.67
49315;BME280;36672;50.710;12.498;2023-01-28T11:42:39;99614.41;;;-0.54;63.79
49315;BME280;36672;50.710;12.498;2023-01-28T11:45:14;99611.03;;;-0.56;63.76
49315;BME280;36672;50.710;12.498;2023-01-28T11:48:34;99605.41;;;-0.51;63.46
49315;BME280;36672;50.710;12.498;2023-01-28T11:50:59;99617.97;;;-0.40;62.38
49315;BME280;36672;50.710;12.498;2023-01-28T12:04:39;99612.91;;;-0.71;59.77
49315;BME280;36672;50.710;12.498;2023-01-28T12:10:04;99610.09;;;-0.82;61.53
49315;BME280;36672;50.710;12.498;2023-01-28T12:27:00;99598.13;;;-1.02;61.31
49315;BME280;36672;50.710;12.498;2023-01-28T12:29:46;99584.69;;;-1.13;61.30
49315;BME280;36672;50.710;12.498;2023-01-28T12:32:35;99595.84;;;-1.08;60.37
49315;BME280;36672;50.710;12.498;2023-01-28T12:35:16;99600.06;;;-1.19;60.96
49315;BME280;36672;50.710;12.498;2023-01-28T12:43:00;99563.38;;;-1.39;62.45
49315;BME280;36672;50.710;12.498;2023-01-28T12:45:32;99587.75;;;-1.20;61.89
49315;BME280;36672;50.710;12.498;2023-01-28T12:50:38;99576.88;;;-1.29;59.81
49315;BME280;36672;50.710;12.498;2023-01-28T12:56:08;99580.00;;;-1.23;62.41
49315;BME280;36672;50.710;12.498;2023-01-28T13:01:15;99571.94;;;-0.94;62.48
49315;BME280;36672;50.710;12.498;2023-01-28T13:03:54;99577.19;;;-0.79;61.76
49315;BME280;36672;50.710;12.498;2023-01-28T13:06:40;99577.31;;;-0.81;61.36
49315;BME280;36672;50.710;12.498;2023-01-28T13:09:21;99572.22;;;-0.71;62.07
49315;BME280;36672;50.710;12.498;2023-01-28T13:11:50;99563.59;;;-0.75;61.94
49315;BME280;36672;50.710;12.498;2023-01-28T13:14:27;99574.44;;;-0.78;61.75
49315;BME280;36672;50.710;12.498;2023-01-28T13:16:52;99567.81;;;-0.85;62.07
49315;BME280;36672;50.710;12.498;2023-01-28T13:21:44;99590.25;;;-0.76;62.58
49315;BME280;36672;50.710;12.498;2023-01-28T13:31:42;99572.84;;;-0.80;61.90
49315;BME280;36672;50.710;12.498;2023-01-28T13:34:58;99586.34;;;-0.71;61.62
49315;BME280;36672;50.710;12.498;2023-01-28T13:37:01;99567.53;;;-0.80;61.30
49315;BME280;36672;50.710;12.498;2023-01-28T13:39:28;99553.28;;;-0.92;61.47
49315;BME280;36672;50.710;12.498;2023-01-28T13:42:18;99588.88;;;-0.82;60.02
49315;BME280;36672;50.710;12.498;2023-01-28T13:44:44;99566.53;;;-0.92;61.80
49315;BME280;36672;50.710;12.498;2023-01-28T13:49:50;99593.00;;;-0.78;61.22
49315;BME280;36672;50.710;12.498;2023-01-28T13:55:04;99588.06;;;-0.97;61.22
49315;BME280;36672;50.710;12.498;2023-01-28T14:19:58;99606.25;;;-1.05;61.70
49315;BME280;36672;50.710;12.498;2023-01-28T14:22:24;99631.06;;;-0.92;61.97
49315;BME280;36672;50.710;12.498;2023-01-28T14:24:50;99625.00;;;-0.94;61.89
49315;BME280;36672;50.710;12.498;2023-01-28T14:27:30;99627.47;;;-0.91;62.02
49315;BME280;36672;50.710;12.498;2023-01-28T14:32:57;99612.22;;;-1.02;62.33
49315;BME280;36672;50.710;12.498;2023-01-28T14:35:28;99628.19;;;-0.89;62.81
49315;BME280;36672;50.710;12.498;2023-01-28T14:37:55;99608.06;;;-1.06;62.21
49315;BME280;36672;50.710;12.498;2023-01-28T14:40:21;99615.81;;;-1.03;61.97
49315;BME280;36672;50.710;12.498;2023-01-28T14:42:53;99632.22;;;-0.96;61.85
49315;BME280;36672;50.710;12.498;2023-01-28T14:56:35;99620.78;;;-1.11;61.66
49315;BME280;36672;50.710;12.498;2023-01-28T14:59:17;99625.41;;;-1.15;61.50
49315;BME280;36672;50.710;12.498;2023-01-28T15:01:46;99624.47;;;-1.13;61.09
49315;BME280;36672;50.710;12.498;2023-01-28T15:04:30;99628.19;;;-1.16;61.61
49315;BME280;36672;50.710;12.498;2023-01-28T15:07:00;99624.09;;;-1.22;61.25
49315;BME280;36672;50.710;12.498;2023-01-28T15:09:26;99616.63;;;-1.29;61.49
49315;BME280;36672;50.710;12.498;2023-01-28T15:11:54;99602.72;;;-1.33;61.26
49315;BME280;36672;50.710;12.498;2023-01-28T15:14:26;99609.25;;;-1.24;61.56
49315;BME280;36672;50.710;12.498;2023-01-28T15:16:53;99613.69;;;-1.25;61.78